createdAt,value
2022-11-16T00:07:37.531Z,100.00
2022-11-16T00:17:39.073Z,100.00
2022-11-16T00:27:40.408Z,100.00
2022-11-16T00:37:41.804Z,100.00
2022-11-16T00:47:43.136Z,100.00
2022-11-16T00:57:44.458Z,100.00
2022-11-16T01:07:46.333Z,100.00
2022-11-16T01:17:48.167Z,100.00
2022-11-16T01:27:49.560Z,100.00
2022-11-16T01:37:50.898Z,100.00
2022-11-16T01:47:54.193Z,100.00
2022-11-16T01:57:56.299Z,100.00
2022-11-16T02:08:53.468Z,100.00
2022-11-16T02:19:07.271Z,100.00
2022-11-16T02:29:28.627Z,100.00
2022-11-16T02:39:32.601Z,100.00
2022-11-16T02:49:39.008Z,100.00
2022-11-16T02:59:44.475Z,100.00
2022-11-16T03:09:48.430Z,100.00
2022-11-16T03:20:11.373Z,100.00
2022-11-16T03:30:21.074Z,100.00
2022-11-16T03:40:27.831Z,100.00
2022-11-16T03:50:29.185Z,100.00
2022-11-16T04:00:30.670Z,100.00
2022-11-16T04:10:50.598Z,100.00
2022-11-16T04:21:10.394Z,100.00
2022-11-16T04:31:30.157Z,100.00
2022-11-16T04:41:50.935Z,100.00
2022-11-16T04:51:52.356Z,100.00
2022-11-16T05:02:09.168Z,100.00
2022-11-16T05:12:25.481Z,100.00
2022-11-16T05:22:26.900Z,100.00
2022-11-16T05:32:28.284Z,100.00
2022-11-16T05:42:29.601Z,100.00
2022-11-16T05:52:30.948Z,100.00
2022-11-16T06:02:33.355Z,100.00
2022-11-16T06:12:34.698Z,100.00
2022-11-16T06:22:36.030Z,100.00
2022-11-16T06:32:37.410Z,100.00
2022-11-16T06:42:38.760Z,100.00
2022-11-16T06:52:40.078Z,100.00
2022-11-16T07:02:41.445Z,100.00
2022-11-16T07:12:42.815Z,100.00
2022-11-16T07:22:44.128Z,100.00
2022-11-16T07:32:45.540Z,100.00
2022-11-16T07:42:47.359Z,100.00
2022-11-16T07:52:48.679Z,100.00
2022-11-16T08:02:50.249Z,100.00
2022-11-16T08:12:51.593Z,100.00
2022-11-16T08:22:52.980Z,100.00
2022-11-16T08:32:54.362Z,100.00
2022-11-16T08:42:58.350Z,100.00
2022-11-16T08:53:00.149Z,100.00
2022-11-16T09:03:01.692Z,100.00
2022-11-16T09:13:03.623Z,100.00
2022-11-16T09:23:04.999Z,100.00
2022-11-16T09:33:06.305Z,99.55
2022-11-16T09:43:38.446Z,99.95
2022-11-16T09:53:48.532Z,98.93
2022-11-16T10:03:53.898Z,97.62
2022-11-16T10:14:13.709Z,98.13
2022-11-16T10:24:34.130Z,97.01
2022-11-16T10:34:55.854Z,96.89
2022-11-16T10:44:59.976Z,93.80
2022-11-16T10:55:01.400Z,92.05
2022-11-16T11:05:21.518Z,91.79
2022-11-16T11:15:27.079Z,92.36
2022-11-16T11:25:32.698Z,90.18
2022-11-16T11:35:34.610Z,90.85
2022-11-16T11:45:47.616Z,89.66
2022-11-16T11:55:55.656Z,89.97
2022-11-16T12:06:08.265Z,90.77
2022-11-16T12:16:25.184Z,88.00
2022-11-16T12:27:07.761Z,87.79
2022-11-16T12:37:33.011Z,88.29
2022-11-16T12:47:59.089Z,85.70
2022-11-16T12:58:32.219Z,87.89
2022-11-16T13:08:47.487Z,86.08
2022-11-16T13:18:50.679Z,87.47
2022-11-16T13:29:00.364Z,86.32
2022-11-16T13:39:01.680Z,83.67
2022-11-16T13:49:03.268Z,85.39
2022-11-16T13:59:04.642Z,86.62
2022-11-16T14:09:43.298Z,82.83
2022-11-16T14:19:45.317Z,85.60
2022-11-16T14:30:03.600Z,83.97
2022-11-16T14:40:08.707Z,83.40
2022-11-16T14:50:24.593Z,85.79
2022-11-16T15:00:26.380Z,86.77
2022-11-16T15:10:29.066Z,87.46
2022-11-16T15:20:33.774Z,87.18
2022-11-16T15:30:37.884Z,85.80
2022-11-16T15:40:40.042Z,86.39
2022-11-16T15:51:06.438Z,85.74
2022-11-16T16:01:09.794Z,86.97
2022-11-16T16:11:26.879Z,87.51
2022-11-16T16:21:43.714Z,87.56
2022-11-16T16:31:45.059Z,88.00
2022-11-16T16:41:46.481Z,88.17
2022-11-16T16:51:48.134Z,88.12
2022-11-16T17:01:53.210Z,88.81
2022-11-16T17:11:54.531Z,88.83
2022-11-16T17:21:56.083Z,88.20
2022-11-16T17:31:57.419Z,88.69
2022-11-16T17:41:58.757Z,89.32
2022-11-16T17:52:01.226Z,89.56
2022-11-16T18:02:02.581Z,89.89
2022-11-16T18:12:04.098Z,89.87
2022-11-16T18:22:05.508Z,90.05
2022-11-16T18:32:07.161Z,90.70
2022-11-16T18:42:11.331Z,90.44
2022-11-16T18:52:12.695Z,90.70
2022-11-16T19:02:14.045Z,91.38
2022-11-16T19:12:15.442Z,91.03
2022-11-16T19:22:16.770Z,91.73
2022-11-16T19:32:18.105Z,91.94
2022-11-16T19:42:19.607Z,91.27
2022-11-16T19:52:21.054Z,93.37
2022-11-16T20:02:22.409Z,92.42
2022-11-16T20:12:23.752Z,93.12
2022-11-16T20:22:25.074Z,92.91
2022-11-16T20:32:26.461Z,92.98
2022-11-16T20:42:27.820Z,92.84
2022-11-16T20:52:29.264Z,93.45
2022-11-16T21:02:31.010Z,93.74
2022-11-16T21:12:50.792Z,93.86
2022-11-16T21:22:52.150Z,92.79
2022-11-16T21:32:53.489Z,93.84
2022-11-16T21:42:54.899Z,92.82
2022-11-16T21:52:56.192Z,93.49
2022-11-16T22:02:57.614Z,93.48
2022-11-16T22:12:59.285Z,92.55
2022-11-16T22:23:00.702Z,92.27
2022-11-16T22:33:02.088Z,92.77
2022-11-16T22:43:03.408Z,92.24
2022-11-16T22:53:04.815Z,93.26
2022-11-16T23:03:06.257Z,92.77
2022-11-16T23:13:28.383Z,93.14
2022-11-16T23:23:48.110Z,92.77
2022-11-16T23:33:49.437Z,94.65
2022-11-16T23:44:00.292Z,94.30
2022-11-16T23:54:01.718Z,96.36
